sensor_id;sensor_type;location;lat;lon;timestamp;P1;durP1;ratioP1;P2;durP2;ratioP2
58139;SDS011;53185;47.378;18.922;2023-03-31T00:01:00;17.80;;;8.45;;
58139;SDS011;53185;47.378;18.922;2023-03-31T00:03:27;15.07;;;8.05;;
58139;SDS011;53185;47.378;18.922;2023-03-31T00:05:56;17.50;;;8.57;;
58139;SDS011;53185;47.378;18.922;2023-03-31T00:08:25;12.20;;;7.45;;
58139;SDS011;53185;47.378;18.922;2023-03-31T00:10:57;14.52;;;7.82;;
58139;SDS011;53185;47.378;18.922;2023-03-31T00:13:26;14.63;;;8.47;;
58139;SDS011;53185;47.378;18.922;2023-03-31T00:15:55;16.92;;;8.85;;
58139;SDS011;53185;47.378;18.922;2023-03-31T00:18:24;19.45;;;9.18;;
58139;SDS011;53185;47.378;18.922;2023-03-31T00:20:52;14.57;;;9.05;;
58139;SDS011;53185;47.378;18.922;2023-03-31T00:23:20;18.83;;;9.57;;
58139;SDS011;53185;47.378;18.922;2023-03-31T00:25:54;17.35;;;9.15;;
58139;SDS011;53185;47.378;18.922;2023-03-31T00:28:21;18.90;;;8.90;;
58139;SDS011;53185;47.378;18.922;2023-03-31T00:30:48;21.40;;;9.55;;
58139;SDS011;53185;47.378;18.922;2023-03-31T00:33:16;16.42;;;8.43;;
58139;SDS011;53185;47.378;18.922;2023-03-31T00:35:43;13.88;;;7.95;;
58139;SDS011;53185;47.378;18.922;2023-03-31T00:38:12;15.20;;;8.75;;
58139;SDS011;53185;47.378;18.922;2023-03-31T00:40:44;16.05;;;8.38;;
58139;SDS011;53185;47.378;18.922;2023-03-31T00:43:27;15.63;;;8.00;;
58139;SDS011;53185;47.378;18.922;2023-03-31T00:46:29;17.77;;;8.77;;
58139;SDS011;53185;47.378;18.922;2023-03-31T00:49:10;17.92;;;9.07;;
58139;SDS011;53185;47.378;18.922;2023-03-31T00:51:47;14.52;;;8.55;;
58139;SDS011;53185;47.378;18.922;2023-03-31T00:54:15;15.60;;;7.80;;
58139;SDS011;53185;47.378;18.922;2023-03-31T00:56:45;13.95;;;8.75;;
58139;SDS011;53185;47.378;18.922;2023-03-31T00:59:16;19.05;;;8.77;;
58139;SDS011;53185;47.378;18.922;2023-03-31T01:01:44;13.68;;;8.30;;
58139;SDS011;53185;47.378;18.922;2023-03-31T01:04:12;14.55;;;8.05;;
58139;SDS011;53185;47.378;18.922;2023-03-31T01:06:47;17.23;;;8.07;;
58139;SDS011;53185;47.378;18.922;2023-03-31T01:09:23;14.75;;;8.57;;
58139;SDS011;53185;47.378;18.922;2023-03-31T01:11:51;18.15;;;9.27;;
58139;SDS011;53185;47.378;18.922;2023-03-31T01:14:19;16.42;;;8.30;;
58139;SDS011;53185;47.378;18.922;2023-03-31T01:16:46;15.93;;;9.65;;
58139;SDS011;53185;47.378;18.922;2023-03-31T01:19:27;14.82;;;7.87;;
58139;SDS011;53185;47.378;18.922;2023-03-31T01:24:43;13.55;;;8.23;;
58139;SDS011;53185;47.378;18.922;2023-03-31T01:44:01;12.90;;;8.15;;
58139;SDS011;53185;47.378;18.922;2023-03-31T01:54:51;11.98;;;7.68;;
58139;SDS011;53185;47.378;18.922;2023-03-31T01:57:27;15.63;;;7.68;;
58139;SDS011;53185;47.378;18.922;2023-03-31T02:05:11;18.15;;;7.87;;
58139;SDS011;53185;47.378;18.922;2023-03-31T02:07:55;14.05;;;7.60;;
58139;SDS011;53185;47.378;18.922;2023-03-31T02:10:25;12.68;;;7.22;;
58139;SDS011;53185;47.378;18.922;2023-03-31T02:12:58;14.93;;;7.32;;
58139;SDS011;53185;47.378;18.922;2023-03-31T02:15:27;12.70;;;6.50;;
58139;SDS011;53185;47.378;18.922;2023-03-31T02:17:57;12.52;;;7.37;;
58139;SDS011;53185;47.378;18.922;2023-03-31T02:20:26;20.73;;;8.15;;
58139;SDS011;53185;47.378;18.922;2023-03-31T02:22:54;47.15;;;18.12;;
58139;SDS011;53185;47.378;18.922;2023-03-31T02:25:25;42.97;;;16.83;;
58139;SDS011;53185;47.378;18.922;2023-03-31T02:27:56;23.83;;;10.85;;
58139;SDS011;53185;47.378;18.922;2023-03-31T02:30:28;19.08;;;9.70;;
58139;SDS011;53185;47.378;18.922;2023-03-31T02:33:03;18.58;;;9.35;;
58139;SDS011;53185;47.378;18.922;2023-03-31T02:35:31;23.10;;;9.82;;
58139;SDS011;53185;47.378;18.922;2023-03-31T02:38:00;16.12;;;8.48;;
58139;SDS011;53185;47.378;18.922;2023-03-31T02:40:28;14.98;;;8.50;;
58139;SDS011;53185;47.378;18.922;2023-03-31T02:42:57;17.35;;;8.43;;
58139;SDS011;53185;47.378;18.922;2023-03-31T02:48:11;18.40;;;9.00;;
58139;SDS011;53185;47.378;18.922;2023-03-31T02:51:04;18.25;;;9.68;;
58139;SDS011;53185;47.378;18.922;2023-03-31T03:04:27;17.73;;;9.45;;
58139;SDS011;53185;47.378;18.922;2023-03-31T03:07:23;20.93;;;10.50;;
58139;SDS011;53185;47.378;18.922;2023-03-31T03:12:43;23.75;;;10.68;;
58139;SDS011;53185;47.378;18.922;2023-03-31T03:15:23;15.88;;;7.80;;
58139;SDS011;53185;47.378;18.922;2023-03-31T03:17:53;15.30;;;8.20;;
58139;SDS011;53185;47.378;18.922;2023-03-31T03:20:22;18.55;;;8.98;;
58139;SDS011;53185;47.378;18.922;2023-03-31T03:22:49;19.35;;;8.95;;
58139;SDS011;53185;47.378;18.922;2023-03-31T03:25:17;17.30;;;8.63;;
58139;SDS011;53185;47.378;18.922;2023-03-31T03:27:46;18.33;;;9.23;;
58139;SDS011;53185;47.378;18.922;2023-03-31T03:30:14;21.17;;;10.20;;
58139;SDS011;53185;47.378;18.922;2023-03-31T03:32:41;20.08;;;8.77;;
58139;SDS011;53185;47.378;18.922;2023-03-31T03:35:09;26.00;;;10.07;;
58139;SDS011;53185;47.378;18.922;2023-03-31T03:37:37;22.33;;;10.43;;
58139;SDS011;53185;47.378;18.922;2023-03-31T03:40:04;24.08;;;10.48;;
58139;SDS011;53185;47.378;18.922;2023-03-31T03:42:33;20.52;;;10.27;;
58139;SDS011;53185;47.378;18.922;2023-03-31T03:45:01;17.20;;;9.35;;
58139;SDS011;53185;47.378;18.922;2023-03-31T03:47:28;21.15;;;10.52;;
58139;SDS011;53185;47.378;18.922;2023-03-31T03:49:56;19.12;;;10.13;;
58139;SDS011;53185;47.378;18.922;2023-03-31T03:52:23;17.25;;;8.88;;
58139;SDS011;53185;47.378;18.922;2023-03-31T03:54:50;17.80;;;9.30;;
58139;SDS011;53185;47.378;18.922;2023-03-31T03:57:17;20.48;;;9.80;;
58139;SDS011;53185;47.378;18.922;2023-03-31T03:59:45;14.75;;;8.43;;
58139;SDS011;53185;47.378;18.922;2023-03-31T04:02:12;17.50;;;8.55;;
58139;SDS011;53185;47.378;18.922;2023-03-31T04:04:40;19.58;;;8.45;;
58139;SDS011;53185;47.378;18.922;2023-03-31T04:07:07;12.00;;;7.43;;
58139;SDS011;53185;47.378;18.922;2023-03-31T04:09:34;13.88;;;8.35;;
58139;SDS011;53185;47.378;18.922;2023-03-31T04:12:02;14.57;;;7.70;;
58139;SDS011;53185;47.378;18.922;2023-03-31T04:14:29;15.57;;;8.18;;
58139;SDS011;53185;47.378;18.922;2023-03-31T04:16:56;27.08;;;10.55;;
58139;SDS011;53185;47.378;18.922;2023-03-31T04:19:24;21.00;;;10.73;;
58139;SDS011;53185;47.378;18.922;2023-03-31T04:21:53;21.83;;;11.35;;
58139;SDS011;53185;47.378;18.922;2023-03-31T04:24:29;17.27;;;9.23;;
58139;SDS011;53185;47.378;18.922;2023-03-31T04:27:01;18.50;;;8.50;;
58139;SDS011;53185;47.378;18.922;2023-03-31T04:29:33;19.30;;;10.05;;
58139;SDS011;53185;47.378;18.922;2023-03-31T04:32:03;26.65;;;14.63;;
58139;SDS011;53185;47.378;18.922;2023-03-31T04:34:30;21.73;;;13.27;;
58139;SDS011;53185;47.378;18.922;2023-03-31T04:37:02;23.05;;;11.52;;
58139;SDS011;53185;47.378;18.922;2023-03-31T04:39:30;23.73;;;12.65;;
58139;SDS011;53185;47.378;18.922;2023-03-31T04:41:57;21.95;;;11.68;;
58139;SDS011;53185;47.378;18.922;2023-03-31T04:44:26;29.00;;;13.60;;
58139;SDS011;53185;47.378;18.922;2023-03-31T04:46:54;29.40;;;13.70;;
58139;SDS011;53185;47.378;18.922;2023-03-31T04:49:22;25.20;;;10.88;;
58139;SDS011;53185;47.378;18.922;2023-03-31T04:51:49;27.37;;;12.85;;
58139;SDS011;53185;47.378;18.922;2023-03-31T04:54:16;22.52;;;12.73;;
58139;SDS011;53185;47.378;18.922;2023-03-31T04:56:44;24.92;;;12.73;;
58139;SDS011;53185;47.378;18.922;2023-03-31T04:59:14;26.65;;;13.52;;
58139;SDS011;53185;47.378;18.922;2023-03-31T05:01:41;23.70;;;12.50;;
58139;SDS011;53185;47.378;18.922;2023-03-31T05:04:12;30.98;;;16.85;;
58139;SDS011;53185;47.378;18.922;2023-03-31T05:06:39;39.10;;;19.85;;
58139;SDS011;53185;47.378;18.922;2023-03-31T05:09:06;37.47;;;17.73;;
58139;SDS011;53185;47.378;18.922;2023-03-31T05:11:35;34.72;;;18.92;;
58139;SDS011;53185;47.378;18.922;2023-03-31T05:14:04;40.88;;;19.73;;
58139;SDS011;53185;47.378;18.922;2023-03-31T05:16:31;34.78;;;18.27;;
58139;SDS011;53185;47.378;18.922;2023-03-31T05:19:00;35.40;;;19.27;;
58139;SDS011;53185;47.378;18.922;2023-03-31T05:21:27;37.90;;;19.15;;
58139;SDS011;53185;47.378;18.922;2023-03-31T05:23:56;36.05;;;20.42;;
58139;SDS011;53185;47.378;18.922;2023-03-31T05:26:24;31.65;;;19.37;;
58139;SDS011;53185;47.378;18.922;2023-03-31T05:28:52;39.97;;;18.98;;
58139;SDS011;53185;47.378;18.922;2023-03-31T05:31:19;29.52;;;15.05;;
58139;SDS011;53185;47.378;18.922;2023-03-31T05:33:47;26.73;;;14.73;;
58139;SDS011;53185;47.378;18.922;2023-03-31T05:36:15;28.73;;;14.55;;
58139;SDS011;53185;47.378;18.922;2023-03-31T05:38:43;22.62;;;14.25;;
58139;SDS011;53185;47.378;18.922;2023-03-31T05:41:12;24.20;;;12.07;;
58139;SDS011;53185;47.378;18.922;2023-03-31T05:43:39;20.37;;;11.20;;
58139;SDS011;53185;47.378;18.922;2023-03-31T05:46:09;18.45;;;10.27;;
58139;SDS011;53185;47.378;18.922;2023-03-31T05:48:37;21.95;;;9.93;;
58139;SDS011;53185;47.378;18.922;2023-03-31T05:51:04;19.08;;;9.90;;
58139;SDS011;53185;47.378;18.922;2023-03-31T05:53:32;16.95;;;8.98;;
58139;SDS011;53185;47.378;18.922;2023-03-31T05:56:00;22.40;;;14.60;;
58139;SDS011;53185;47.378;18.922;2023-03-31T05:58:30;13.80;;;10.17;;
58139;SDS011;53185;47.378;18.922;2023-03-31T06:01:05;15.55;;;9.30;;
58139;SDS011;53185;47.378;18.922;2023-03-31T06:03:34;16.40;;;9.70;;
58139;SDS011;53185;47.378;18.922;2023-03-31T06:06:03;14.05;;;9.82;;
58139;SDS011;53185;47.378;18.922;2023-03-31T06:08:32;15.13;;;9.13;;
58139;SDS011;53185;47.378;18.922;2023-03-31T06:11:04;13.82;;;8.98;;
58139;SDS011;53185;47.378;18.922;2023-03-31T06:13:36;17.90;;;8.68;;
58139;SDS011;53185;47.378;18.922;2023-03-31T06:16:05;15.30;;;7.05;;
58139;SDS011;53185;47.378;18.922;2023-03-31T06:18:34;8.20;;;6.43;;
58139;SDS011;53185;47.378;18.922;2023-03-31T06:21:02;11.73;;;6.90;;
58139;SDS011;53185;47.378;18.922;2023-03-31T06:23:30;13.85;;;10.35;;
58139;SDS011;53185;47.378;18.922;2023-03-31T06:26:05;20.42;;;7.85;;
58139;SDS011;53185;47.378;18.922;2023-03-31T06:28:34;9.73;;;6.35;;
58139;SDS011;53185;47.378;18.922;2023-03-31T06:31:03;18.00;;;7.53;;
58139;SDS011;53185;47.378;18.922;2023-03-31T06:33:32;10.55;;;5.95;;
58139;SDS011;53185;47.378;18.922;2023-03-31T06:36:00;12.88;;;4.72;;
58139;SDS011;53185;47.378;18.922;2023-03-31T06:38:30;7.20;;;3.97;;
58139;SDS011;53185;47.378;18.922;2023-03-31T06:40:57;9.65;;;4.55;;
58139;SDS011;53185;47.378;18.922;2023-03-31T06:43:25;6.40;;;3.60;;
58139;SDS011;53185;47.378;18.922;2023-03-31T06:45:53;6.00;;;3.92;;
58139;SDS011;53185;47.378;18.922;2023-03-31T06:48:22;4.45;;;3.28;;
58139;SDS011;53185;47.378;18.922;2023-03-31T06:50:51;7.78;;;3.87;;
58139;SDS011;53185;47.378;18.922;2023-03-31T06:53:19;7.73;;;3.67;;
58139;SDS011;53185;47.378;18.922;2023-03-31T06:55:47;5.93;;;3.58;;
58139;SDS011;53185;47.378;18.922;2023-03-31T06:58:15;5.80;;;3.55;;
58139;SDS011;53185;47.378;18.922;2023-03-31T07:00:42;9.68;;;3.85;;
58139;SDS011;53185;47.378;18.922;2023-03-31T07:03:12;6.47;;;4.22;;
58139;SDS011;53185;47.378;18.922;2023-03-31T07:05:40;6.13;;;3.43;;
58139;SDS011;53185;47.378;18.922;2023-03-31T07:08:08;6.78;;;3.70;;
58139;SDS011;53185;47.378;18.922;2023-03-31T07:10:35;9.70;;;3.95;;
58139;SDS011;53185;47.378;18.922;2023-03-31T07:13:02;10.30;;;3.40;;
58139;SDS011;53185;47.378;18.922;2023-03-31T07:15:31;5.93;;;4.05;;
58139;SDS011;53185;47.378;18.922;2023-03-31T07:17:59;8.00;;;3.50;;
58139;SDS011;53185;47.378;18.922;2023-03-31T07:20:29;11.38;;;4.95;;
58139;SDS011;53185;47.378;18.922;2023-03-31T07:22:58;6.47;;;3.55;;
58139;SDS011;53185;47.378;18.922;2023-03-31T07:25:25;6.80;;;3.95;;
58139;SDS011;53185;47.378;18.922;2023-03-31T07:27:53;5.70;;;3.97;;
58139;SDS011;53185;47.378;18.922;2023-03-31T07:30:20;6.18;;;3.50;;
58139;SDS011;53185;47.378;18.922;2023-03-31T07:32:49;9.90;;;3.90;;
58139;SDS011;53185;47.378;18.922;2023-03-31T07:35:17;4.80;;;3.78;;
58139;SDS011;53185;47.378;18.922;2023-03-31T07:37:46;6.05;;;3.97;;
58139;SDS011;53185;47.378;18.922;2023-03-31T07:40:16;3.90;;;3.43;;
58139;SDS011;53185;47.378;18.922;2023-03-31T07:42:46;6.30;;;3.47;;
58139;SDS011;53185;47.378;18.922;2023-03-31T07:45:15;6.32;;;3.78;;
58139;SDS011;53185;47.378;18.922;2023-03-31T07:47:43;7.12;;;4.70;;
58139;SDS011;53185;47.378;18.922;2023-03-31T07:50:13;7.70;;;3.47;;
58139;SDS011;53185;47.378;18.922;2023-03-31T07:52:41;8.43;;;3.62;;
58139;SDS011;53185;47.378;18.922;2023-03-31T07:55:13;9.35;;;4.00;;
58139;SDS011;53185;47.378;18.922;2023-03-31T07:57:41;10.18;;;3.80;;
58139;SDS011;53185;47.378;18.922;2023-03-31T08:00:09;7.28;;;3.50;;
58139;SDS011;53185;47.378;18.922;2023-03-31T08:02:39;6.80;;;4.07;;
58139;SDS011;53185;47.378;18.922;2023-03-31T08:05:10;5.95;;;4.40;;
58139;SDS011;53185;47.378;18.922;2023-03-31T08:07:39;6.93;;;5.50;;
58139;SDS011;53185;47.378;18.922;2023-03-31T08:10:10;8.73;;;3.37;;
58139;SDS011;53185;47.378;18.922;2023-03-31T08:12:40;9.00;;;3.60;;
58139;SDS011;53185;47.378;18.922;2023-03-31T08:15:07;7.18;;;3.97;;
58139;SDS011;53185;47.378;18.922;2023-03-31T08:17:35;6.90;;;3.70;;
58139;SDS011;53185;47.378;18.922;2023-03-31T08:20:03;6.68;;;4.82;;
58139;SDS011;53185;47.378;18.922;2023-03-31T08:22:36;8.00;;;4.80;;
58139;SDS011;53185;47.378;18.922;2023-03-31T08:25:05;5.62;;;3.60;;
58139;SDS011;53185;47.378;18.922;2023-03-31T08:30:02;5.35;;;4.10;;
58139;SDS011;53185;47.378;18.922;2023-03-31T08:32:31;5.07;;;3.20;;
58139;SDS011;53185;47.378;18.922;2023-03-31T08:34:59;4.55;;;3.60;;
58139;SDS011;53185;47.378;18.922;2023-03-31T08:37:26;4.37;;;3.42;;
58139;SDS011;53185;47.378;18.922;2023-03-31T08:39:57;6.72;;;3.80;;
58139;SDS011;53185;47.378;18.922;2023-03-31T08:45:22;8.85;;;3.08;;
58139;SDS011;53185;47.378;18.922;2023-03-31T08:47:54;5.50;;;3.25;;
58139;SDS011;53185;47.378;18.922;2023-03-31T08:50:25;5.82;;;3.67;;
58139;SDS011;53185;47.378;18.922;2023-03-31T08:55:54;4.55;;;2.62;;
58139;SDS011;53185;47.378;18.922;2023-03-31T09:04:29;6.12;;;3.25;;
58139;SDS011;53185;47.378;18.922;2023-03-31T09:10:54;5.97;;;3.70;;
58139;SDS011;53185;47.378;18.922;2023-03-31T11:50:26;13.20;;;5.95;;
58139;SDS011;53185;47.378;18.922;2023-03-31T11:53:10;9.95;;;3.12;;
58139;SDS011;53185;47.378;18.922;2023-03-31T11:55:47;4.55;;;3.25;;
58139;SDS011;53185;47.378;18.922;2023-03-31T11:58:19;4.90;;;3.30;;
58139;SDS011;53185;47.378;18.922;2023-03-31T12:00:58;7.35;;;3.55;;
58139;SDS011;53185;47.378;18.922;2023-03-31T12:06:30;11.68;;;3.00;;
58139;SDS011;53185;47.378;18.922;2023-03-31T12:11:54;8.82;;;3.47;;
58139;SDS011;53185;47.378;18.922;2023-03-31T12:23:26;5.85;;;2.78;;
58139;SDS011;53185;47.378;18.922;2023-03-31T12:28:51;6.30;;;2.87;;
58139;SDS011;53185;47.378;18.922;2023-03-31T12:31:23;4.62;;;2.92;;
58139;SDS011;53185;47.378;18.922;2023-03-31T12:42:18;8.25;;;4.95;;
58139;SDS011;53185;47.378;18.922;2023-03-31T12:55:36;7.15;;;4.15;;
58139;SDS011;53185;47.378;18.922;2023-03-31T13:03:40;5.10;;;3.37;;
58139;SDS011;53185;47.378;18.922;2023-03-31T13:15:14;7.93;;;3.60;;
58139;SDS011;53185;47.378;18.922;2023-03-31T13:17:41;5.22;;;3.37;;
58139;SDS011;53185;47.378;18.922;2023-03-31T13:20:32;7.72;;;3.20;;
58139;SDS011;53185;47.378;18.922;2023-03-31T13:28:15;8.50;;;2.33;;
58139;SDS011;53185;47.378;18.922;2023-03-31T13:31:10;8.60;;;5.10;;
58139;SDS011;53185;47.378;18.922;2023-03-31T13:33:47;4.43;;;2.50;;
58139;SDS011;53185;47.378;18.922;2023-03-31T13:41:55;5.20;;;2.30;;
58139;SDS011;53185;47.378;18.922;2023-03-31T13:50:56;11.88;;;5.20;;
58139;SDS011;53185;47.378;18.922;2023-03-31T14:06:06;5.22;;;2.70;;
58139;SDS011;53185;47.378;18.922;2023-03-31T14:13:43;9.95;;;4.00;;
58139;SDS011;53185;47.378;18.922;2023-03-31T14:16:11;17.17;;;8.68;;
58139;SDS011;53185;47.378;18.922;2023-03-31T14:18:41;6.18;;;2.55;;
58139;SDS011;53185;47.378;18.922;2023-03-31T14:21:28;10.90;;;3.00;;
58139;SDS011;53185;47.378;18.922;2023-03-31T14:34:58;17.08;;;6.75;;
58139;SDS011;53185;47.378;18.922;2023-03-31T14:37:30;8.55;;;2.80;;
58139;SDS011;53185;47.378;18.922;2023-03-31T14:39:57;23.25;;;8.85;;
58139;SDS011;53185;47.378;18.922;2023-03-31T14:42:38;11.65;;;4.00;;
58139;SDS011;53185;47.378;18.922;2023-03-31T14:50:35;7.93;;;3.30;;
58139;SDS011;53185;47.378;18.922;2023-03-31T14:56:37;5.50;;;3.40;;
58139;SDS011;53185;47.378;18.922;2023-03-31T15:02:44;8.77;;;2.20;;
58139;SDS011;53185;47.378;18.922;2023-03-31T15:07:55;11.32;;;5.22;;
58139;SDS011;53185;47.378;18.922;2023-03-31T15:10:23;7.80;;;2.35;;
58139;SDS011;53185;47.378;18.922;2023-03-31T15:12:52;6.22;;;3.60;;
58139;SDS011;53185;47.378;18.922;2023-03-31T15:15:19;11.07;;;4.50;;
58139;SDS011;53185;47.378;18.922;2023-03-31T15:17:47;14.82;;;7.07;;
58139;SDS011;53185;47.378;18.922;2023-03-31T15:23:45;10.43;;;3.42;;
58139;SDS011;53185;47.378;18.922;2023-03-31T15:29:47;13.02;;;2.85;;
58139;SDS011;53185;47.378;18.922;2023-03-31T15:32:29;9.68;;;2.40;;
58139;SDS011;53185;47.378;18.922;2023-03-31T15:35:06;15.02;;;8.45;;
58139;SDS011;53185;47.378;18.922;2023-03-31T15:37:49;7.30;;;3.25;;
58139;SDS011;53185;47.378;18.922;2023-03-31T15:43:03;4.55;;;3.05;;
58139;SDS011;53185;47.378;18.922;2023-03-31T15:51:49;9.00;;;4.40;;
58139;SDS011;53185;47.378;18.922;2023-03-31T15:54:29;5.20;;;3.08;;
58139;SDS011;53185;47.378;18.922;2023-03-31T15:57:01;6.55;;;4.25;;
58139;SDS011;53185;47.378;18.922;2023-03-31T16:00:14;7.65;;;4.30;;
58139;SDS011;53185;47.378;18.922;2023-03-31T16:02:38;8.30;;;5.03;;
58139;SDS011;53185;47.378;18.922;2023-03-31T16:08:34;9.77;;;3.47;;
58139;SDS011;53185;47.378;18.922;2023-03-31T16:14:38;7.37;;;3.25;;
58139;SDS011;53185;47.378;18.922;2023-03-31T16:17:16;7.10;;;4.12;;
58139;SDS011;53185;47.378;18.922;2023-03-31T16:19:48;11.40;;;3.97;;
58139;SDS011;53185;47.378;18.922;2023-03-31T16:22:21;7.72;;;4.07;;
58139;SDS011;53185;47.378;18.922;2023-03-31T16:24:52;8.13;;;4.20;;
58139;SDS011;53185;47.378;18.922;2023-03-31T16:27:20;9.70;;;3.72;;
58139;SDS011;53185;47.378;18.922;2023-03-31T16:29:48;6.97;;;3.20;;
58139;SDS011;53185;47.378;18.922;2023-03-31T16:32:18;6.00;;;3.15;;
58139;SDS011;53185;47.378;18.922;2023-03-31T16:35:20;6.05;;;2.85;;
58139;SDS011;53185;47.378;18.922;2023-03-31T16:37:40;5.93;;;2.60;;
58139;SDS011;53185;47.378;18.922;2023-03-31T16:40:08;6.32;;;3.33;;
58139;SDS011;53185;47.378;18.922;2023-03-31T16:42:36;7.70;;;4.00;;
58139;SDS011;53185;47.378;18.922;2023-03-31T16:45:04;9.65;;;4.37;;
58139;SDS011;53185;47.378;18.922;2023-03-31T16:47:36;11.57;;;3.30;;
58139;SDS011;53185;47.378;18.922;2023-03-31T16:50:09;6.12;;;2.28;;
58139;SDS011;53185;47.378;18.922;2023-03-31T16:52:38;5.40;;;3.08;;
58139;SDS011;53185;47.378;18.922;2023-03-31T16:55:05;14.63;;;4.47;;
58139;SDS011;53185;47.378;18.922;2023-03-31T16:57:33;11.60;;;4.53;;
58139;SDS011;53185;47.378;18.922;2023-03-31T17:00:01;8.30;;;4.40;;
58139;SDS011;53185;47.378;18.922;2023-03-31T17:02:33;4.97;;;3.17;;
58139;SDS011;53185;47.378;18.922;2023-03-31T17:05:03;5.45;;;3.10;;
58139;SDS011;53185;47.378;18.922;2023-03-31T17:07:39;9.70;;;4.30;;
58139;SDS011;53185;47.378;18.922;2023-03-31T17:10:10;9.18;;;3.62;;
58139;SDS011;53185;47.378;18.922;2023-03-31T17:12:40;8.13;;;3.20;;
58139;SDS011;53185;47.378;18.922;2023-03-31T17:15:11;6.00;;;3.47;;
58139;SDS011;53185;47.378;18.922;2023-03-31T17:17:42;11.75;;;4.57;;
58139;SDS011;53185;47.378;18.922;2023-03-31T17:20:10;13.15;;;4.68;;
58139;SDS011;53185;47.378;18.922;2023-03-31T17:26:08;11.03;;;5.77;;
58139;SDS011;53185;47.378;18.922;2023-03-31T17:32:11;6.57;;;2.80;;
58139;SDS011;53185;47.378;18.922;2023-03-31T17:34:42;11.38;;;3.20;;
58139;SDS011;53185;47.378;18.922;2023-03-31T17:37:10;6.82;;;2.95;;
58139;SDS011;53185;47.378;18.922;2023-03-31T17:39:40;6.57;;;3.83;;
58139;SDS011;53185;47.378;18.922;2023-03-31T17:42:09;6.15;;;3.80;;
58139;SDS011;53185;47.378;18.922;2023-03-31T17:44:39;7.05;;;2.95;;
58139;SDS011;53185;47.378;18.922;2023-03-31T17:47:08;11.57;;;4.95;;
58139;SDS011;53185;47.378;18.922;2023-03-31T17:49:36;6.95;;;3.35;;
58139;SDS011;53185;47.378;18.922;2023-03-31T17:52:04;7.37;;;4.10;;
58139;SDS011;53185;47.378;18.922;2023-03-31T17:54:32;11.00;;;4.72;;
58139;SDS011;53185;47.378;18.922;2023-03-31T17:57:01;11.73;;;4.80;;
58139;SDS011;53185;47.378;18.922;2023-03-31T17:59:30;6.78;;;3.45;;
58139;SDS011;53185;47.378;18.922;2023-03-31T18:01:59;45.90;;;23.83;;
58139;SDS011;53185;47.378;18.922;2023-03-31T18:04:31;18.52;;;8.55;;
58139;SDS011;53185;47.378;18.922;2023-03-31T18:07:00;15.88;;;4.55;;
58139;SDS011;53185;47.378;18.922;2023-03-31T18:09:28;11.70;;;4.40;;
58139;SDS011;53185;47.378;18.922;2023-03-31T18:11:58;7.82;;;4.20;;
58139;SDS011;53185;47.378;18.922;2023-03-31T18:14:26;11.02;;;3.70;;
58139;SDS011;53185;47.378;18.922;2023-03-31T18:16:55;14.73;;;4.32;;
58139;SDS011;53185;47.378;18.922;2023-03-31T18:19:28;7.43;;;3.90;;
58139;SDS011;53185;47.378;18.922;2023-03-31T18:21:57;11.95;;;3.42;;
58139;SDS011;53185;47.378;18.922;2023-03-31T18:24:26;6.72;;;3.55;;
58139;SDS011;53185;47.378;18.922;2023-03-31T18:27:01;5.45;;;3.25;;
58139;SDS011;53185;47.378;18.922;2023-03-31T18:29:30;9.07;;;3.55;;
58139;SDS011;53185;47.378;18.922;2023-03-31T18:32:05;5.15;;;3.50;;
58139;SDS011;53185;47.378;18.922;2023-03-31T18:34:35;8.52;;;3.37;;
58139;SDS011;53185;47.378;18.922;2023-03-31T18:37:06;6.78;;;2.95;;
58139;SDS011;53185;47.378;18.922;2023-03-31T18:39:36;12.13;;;3.45;;
58139;SDS011;53185;47.378;18.922;2023-03-31T18:42:09;7.43;;;3.78;;
58139;SDS011;53185;47.378;18.922;2023-03-31T18:44:38;9.57;;;5.40;;
58139;SDS011;53185;47.378;18.922;2023-03-31T18:47:07;10.90;;;6.82;;
58139;SDS011;53185;47.378;18.922;2023-03-31T18:49:35;24.33;;;13.15;;
58139;SDS011;53185;47.378;18.922;2023-03-31T18:52:08;10.70;;;4.57;;
58139;SDS011;53185;47.378;18.922;2023-03-31T18:54:36;11.32;;;4.37;;
58139;SDS011;53185;47.378;18.922;2023-03-31T18:57:09;8.40;;;4.45;;
58139;SDS011;53185;47.378;18.922;2023-03-31T18:59:39;14.18;;;5.32;;
58139;SDS011;53185;47.378;18.922;2023-03-31T19:02:09;18.60;;;8.68;;
58139;SDS011;53185;47.378;18.922;2023-03-31T19:04:43;8.48;;;4.35;;
58139;SDS011;53185;47.378;18.922;2023-03-31T19:07:12;12.77;;;7.15;;
58139;SDS011;53185;47.378;18.922;2023-03-31T19:09:46;10.45;;;5.03;;
58139;SDS011;53185;47.378;18.922;2023-03-31T19:12:16;10.85;;;4.68;;
58139;SDS011;53185;47.378;18.922;2023-03-31T19:14:45;7.07;;;3.50;;
58139;SDS011;53185;47.378;18.922;2023-03-31T19:17:13;6.12;;;3.00;;
58139;SDS011;53185;47.378;18.922;2023-03-31T19:19:44;7.03;;;3.12;;
58139;SDS011;53185;47.378;18.922;2023-03-31T19:22:12;6.47;;;2.60;;
58139;SDS011;53185;47.378;18.922;2023-03-31T19:24:43;6.18;;;3.67;;
58139;SDS011;53185;47.378;18.922;2023-03-31T19:27:17;6.57;;;2.95;;
58139;SDS011;53185;47.378;18.922;2023-03-31T19:29:46;4.97;;;3.25;;
58139;SDS011;53185;47.378;18.922;2023-03-31T19:32:20;11.32;;;3.47;;
58139;SDS011;53185;47.378;18.922;2023-03-31T19:34:49;14.00;;;6.43;;
58139;SDS011;53185;47.378;18.922;2023-03-31T19:37:19;8.20;;;4.65;;
58139;SDS011;53185;47.378;18.922;2023-03-31T19:39:47;3.95;;;2.20;;
58139;SDS011;53185;47.378;18.922;2023-03-31T19:42:18;5.50;;;2.25;;
58139;SDS011;53185;47.378;18.922;2023-03-31T19:44:47;5.70;;;3.75;;
58139;SDS011;53185;47.378;18.922;2023-03-31T19:47:16;8.77;;;4.10;;
58139;SDS011;53185;47.378;18.922;2023-03-31T19:49:52;5.40;;;3.00;;
58139;SDS011;53185;47.378;18.922;2023-03-31T19:52:20;2.42;;;1.70;;
58139;SDS011;53185;47.378;18.922;2023-03-31T19:54:49;3.22;;;1.87;;
58139;SDS011;53185;47.378;18.922;2023-03-31T19:57:20;3.65;;;1.48;;
58139;SDS011;53185;47.378;18.922;2023-03-31T19:59:52;1.48;;;1.10;;
58139;SDS011;53185;47.378;18.922;2023-03-31T20:02:21;5.25;;;1.60;;
58139;SDS011;53185;47.378;18.922;2023-03-31T20:04:50;10.27;;;6.63;;
58139;SDS011;53185;47.378;18.922;2023-03-31T20:07:22;3.00;;;1.75;;
58139;SDS011;53185;47.378;18.922;2023-03-31T20:09:54;6.57;;;4.03;;
58139;SDS011;53185;47.378;18.922;2023-03-31T20:12:23;4.60;;;2.12;;
58139;SDS011;53185;47.378;18.922;2023-03-31T20:14:51;4.40;;;1.45;;
58139;SDS011;53185;47.378;18.922;2023-03-31T20:17:24;4.47;;;1.98;;
58139;SDS011;53185;47.378;18.922;2023-03-31T20:19:56;8.68;;;2.30;;
58139;SDS011;53185;47.378;18.922;2023-03-31T20:22:25;2.00;;;1.27;;
58139;SDS011;53185;47.378;18.922;2023-03-31T20:24:55;4.53;;;2.17;;
58139;SDS011;53185;47.378;18.922;2023-03-31T20:27:23;9.02;;;3.75;;
58139;SDS011;53185;47.378;18.922;2023-03-31T20:29:53;3.97;;;2.53;;
58139;SDS011;53185;47.378;18.922;2023-03-31T20:32:21;2.70;;;1.67;;
58139;SDS011;53185;47.378;18.922;2023-03-31T20:34:50;9.55;;;2.10;;
58139;SDS011;53185;47.378;18.922;2023-03-31T20:37:19;6.87;;;2.35;;
58139;SDS011;53185;47.378;18.922;2023-03-31T20:39:47;4.28;;;1.83;;
58139;SDS011;53185;47.378;18.922;2023-03-31T20:42:19;4.55;;;2.65;;
58139;SDS011;53185;47.378;18.922;2023-03-31T20:44:48;9.32;;;3.05;;
58139;SDS011;53185;47.378;18.922;2023-03-31T20:47:16;2.33;;;1.20;;
58139;SDS011;53185;47.378;18.922;2023-03-31T20:49:44;4.15;;;1.58;;
58139;SDS011;53185;47.378;18.922;2023-03-31T20:52:12;2.37;;;1.33;;